Time;durP1;ratioP1;P1;durP2;ratioP2;P2;SDS_P1;SDS_P2;PMS_P1;PMS_P2;Temp;Humidity;BMP_temperature;BMP_pressure;BME280_temperature;BME280_humidity;BME280_pressure;Samples;Min_cycle;Max_cycle;Signal;HPM_P1;HPM_P2
2024/01/22 00:01:38;;;;;;;16.37;6.40;;;4.70;1.00;;;;;;5039700;28;20435;-79
2024/01/22 00:04:03;;;;;;;12.93;7.80;;;4.90;1.00;;;;;;5038627;28;20937;-79
2024/01/22 00:06:29;;;;;;;9.90;5.90;;;5.10;1.00;;;;;;5040271;28;20531;-80
2024/01/22 00:08:54;;;;;;;6.83;4.80;;;5.20;1.00;;;;;;5045944;28;20181;-77
2024/01/22 00:11:20;;;;;;;8.10;5.07;;;5.20;1.00;;;;;;5032054;28;20194;-77
2024/01/22 00:13:46;;;;;;;9.33;5.13;;;5.10;1.00;;;;;;5042736;28;20536;-78
2024/01/22 00:16:12;;;;;;;10.80;4.80;;;5.00;1.00;;;;;;5034517;28;20221;-80
2024/01/22 00:18:38;;;;;;;8.20;4.70;;;4.90;1.00;;;;;;5038446;28;20260;-76
2024/01/22 00:21:04;;;;;;;9.67;5.50;;;4.80;1.00;;;;;;5031458;28;20539;-76
2024/01/22 00:23:29;;;;;;;7.83;5.10;;;4.70;1.00;;;;;;5032930;28;20232;-79
2024/01/22 00:25:55;;;;;;;10.00;5.40;;;4.70;1.00;;;;;;5044101;28;20227;-76
2024/01/22 00:28:21;;;;;;;13.03;7.13;;;4.70;1.00;;;;;;5047392;28;20188;-79
2024/01/22 00:30:46;;;;;;;13.17;7.00;;;4.60;1.00;;;;;;5030972;28;20212;-79
2024/01/22 00:33:12;;;;;;;10.63;6.40;;;4.50;1.00;;;;;;5045260;28;20181;-77
2024/01/22 00:35:37;;;;;;;10.47;6.03;;;4.30;1.00;;;;;;5029886;28;20670;-78
2024/01/22 00:38:03;;;;;;;11.53;6.83;;;4.20;1.00;;;;;;5029563;28;20192;-77
2024/01/22 00:40:28;;;;;;;9.97;6.20;;;3.90;1.00;;;;;;5029695;28;20684;-80
2024/01/22 00:42:54;;;;;;;12.50;6.50;;;3.80;1.00;;;;;;5040337;28;20306;-77
2024/01/22 00:45:19;;;;;;;8.10;5.10;;;3.80;1.00;;;;;;5038828;28;20563;-77
2024/01/22 00:47:45;;;;;;;10.13;5.53;;;3.80;1.00;;;;;;5047887;28;20199;-77
2024/01/22 00:50:11;;;;;;;7.40;5.00;;;3.90;1.00;;;;;;5033238;28;20219;-78
2024/01/22 00:52:36;;;;;;;10.50;5.67;;;3.90;1.00;;;;;;5029114;28;20181;-79
2024/01/22 00:55:02;;;;;;;8.30;5.03;;;3.90;1.00;;;;;;5036242;28;20552;-77
2024/01/22 00:57:28;;;;;;;7.67;5.17;;;3.90;1.00;;;;;;5037059;28;20215;-77
2024/01/22 00:59:53;;;;;;;10.07;5.17;;;3.90;1.00;;;;;;5040099;28;20998;-78
2024/01/22 01:02:19;;;;;;;8.87;4.80;;;3.90;1.00;;;;;;5037248;28;20189;-76
2024/01/22 01:04:44;;;;;;;12.03;5.27;;;3.80;1.00;;;;;;5031822;28;20204;-76
2024/01/22 01:07:10;;;;;;;7.10;4.33;;;3.90;1.00;;;;;;5041200;28;20582;-77
2024/01/22 01:09:35;;;;;;;8.70;4.80;;;3.80;1.00;;;;;;5039826;28;20208;-78
2024/01/22 01:12:01;;;;;;;7.73;5.10;;;3.80;1.00;;;;;;5043199;28;20710;-76
2024/01/22 01:14:26;;;;;;;8.80;5.70;;;3.70;1.00;;;;;;5043174;28;20755;-78
2024/01/22 01:16:52;;;;;;;13.17;7.20;;;3.60;1.00;;;;;;5034984;28;20272;-76
2024/01/22 01:19:17;;;;;;;11.47;6.97;;;3.50;1.00;;;;;;5036248;28;20439;-82
2024/01/22 01:21:43;;;;;;;18.40;9.23;;;3.50;1.00;;;;;;5033320;28;20177;-77
2024/01/22 01:24:08;;;;;;;12.17;6.80;;;3.50;1.00;;;;;;5048135;28;20242;-80
2024/01/22 01:26:41;;;;;;;10.80;7.40;;;3.30;1.00;;;;;;5036588;28;20323;-76
2024/01/22 01:29:07;;;;;;;14.20;8.00;;;3.20;1.00;;;;;;5044894;28;20203;-80
2024/01/22 01:31:32;;;;;;;13.30;7.87;;;3.20;1.00;;;;;;5033926;28;20424;-76
2024/01/22 01:33:57;;;;;;;11.20;6.97;;;3.60;1.00;;;;;;5032980;28;20229;-76
2024/01/22 01:36:23;;;;;;;13.43;7.67;;;3.20;1.00;;;;;;5032582;28;20194;-77
2024/01/22 01:38:48;;;;;;;11.60;6.83;;;3.20;1.00;;;;;;5036791;28;20185;-78
2024/01/22 01:41:14;;;;;;;11.03;6.50;;;3.20;1.00;;;;;;5043131;28;20719;-77
2024/01/22 01:43:39;;;;;;;9.40;5.80;;;3.20;1.00;;;;;;5045991;28;20568;-76
2024/01/22 01:46:05;;;;;;;9.70;5.37;;;3.30;1.00;;;;;;5039310;28;20185;-76
2024/01/22 01:48:32;;;;;;;8.67;5.03;;;3.30;1.00;;;;;;5043898;28;20491;-76
2024/01/22 01:50:57;;;;;;;10.50;5.27;;;3.40;1.00;;;;;;5039195;28;20197;-76
2024/01/22 01:53:25;;;;;;;9.70;4.73;;;3.50;1.00;;;;;;5040066;28;20985;-76
2024/01/22 01:55:50;;;;;;;9.37;4.40;;;3.60;1.00;;;;;;5040941;28;20182;-76
2024/01/22 01:58:18;;;;;;;6.37;4.67;;;3.50;1.00;;;;;;5037262;28;20454;-79
2024/01/22 02:00:47;;;;;;;7.37;4.50;;;3.40;1.00;;;;;;5043264;28;20206;-83
2024/01/22 02:03:13;;;;;;;10.00;4.43;;;3.40;1.00;;;;;;5043164;28;20480;-76
2024/01/22 02:05:38;;;;;;;7.40;4.77;;;3.50;1.00;;;;;;5040738;28;20467;-76
2024/01/22 02:08:04;;;;;;;8.50;3.77;;;3.50;1.00;;;;;;5045870;28;20189;-77
2024/01/22 02:10:30;;;;;;;11.80;4.30;;;3.60;1.00;;;;;;5043364;28;20328;-76
2024/01/22 02:12:55;;;;;;;8.10;3.50;;;3.70;1.00;;;;;;5044281;28;20231;-76
2024/01/22 02:15:21;;;;;;;5.20;3.27;;;3.90;1.00;;;;;;5050082;28;20181;-77
2024/01/22 02:17:47;;;;;;;9.80;3.40;;;4.00;1.00;;;;;;5039168;28;20178;-79
2024/01/22 02:20:13;;;;;;;4.80;3.00;;;4.20;1.00;;;;;;5038779;28;20205;-77
2024/01/22 02:22:38;;;;;;;6.17;3.10;;;4.40;1.00;;;;;;5042547;28;20178;-76
2024/01/22 02:25:04;;;;;;;6.93;3.00;;;4.50;1.00;;;;;;5040124;28;20500;-77
2024/01/22 02:27:30;;;;;;;10.17;3.97;;;4.60;1.00;;;;;;5041392;28;20203;-77
2024/01/22 02:29:56;;;;;;;5.30;3.03;;;4.60;1.00;;;;;;5040609;28;20439;-79
2024/01/22 02:32:21;;;;;;;7.80;3.10;;;4.70;1.00;;;;;;5033614;28;20416;-77
2024/01/22 02:34:47;;;;;;;4.40;2.97;;;4.70;1.00;;;;;;5041123;28;20185;-76
2024/01/22 02:37:15;;;;;;;6.93;3.73;;;4.70;1.00;;;;;;5038369;28;20251;-77
2024/01/22 02:39:41;;;;;;;6.53;3.80;;;4.80;1.00;;;;;;5035461;28;20197;-77
2024/01/22 02:42:06;;;;;;;6.40;3.37;;;4.80;1.00;;;;;;5037028;28;20420;-77
2024/01/22 02:44:34;;;;;;;4.70;3.10;;;4.80;1.00;;;;;;5048096;28;20208;-79
2024/01/22 02:47:00;;;;;;;5.20;3.07;;;4.80;1.00;;;;;;5040980;28;20181;-79
2024/01/22 02:49:26;;;;;;;6.20;3.20;;;5.00;1.00;;;;;;5040320;28;20427;-78
2024/01/22 02:51:52;;;;;;;5.43;3.50;;;4.90;1.00;;;;;;5032254;28;20217;-79
2024/01/22 02:54:17;;;;;;;6.27;3.00;;;5.00;1.00;;;;;;5040882;28;20408;-78
2024/01/22 02:56:43;;;;;;;6.33;3.40;;;5.00;1.00;;;;;;5035015;28;20558;-76
2024/01/22 02:59:08;;;;;;;5.07;2.77;;;5.00;1.00;;;;;;5051530;28;20177;-81
2024/01/22 03:01:34;;;;;;;4.70;2.37;;;5.00;1.00;;;;;;5040864;28;20193;-77
2024/01/22 03:03:59;;;;;;;3.60;2.40;;;5.10;1.00;;;;;;5037086;28;20571;-77
2024/01/22 03:06:25;;;;;;;4.47;2.53;;;5.30;1.00;;;;;;5043513;28;20189;-80
2024/01/22 03:08:50;;;;;;;9.43;2.80;;;5.30;1.00;;;;;;5039915;28;20604;-76
2024/01/22 03:11:16;;;;;;;4.43;2.47;;;5.30;1.00;;;;;;5038147;28;20244;-78
2024/01/22 03:13:42;;;;;;;3.07;2.37;;;5.30;1.00;;;;;;5035358;28;20176;-80
2024/01/22 03:16:07;;;;;;;6.57;2.87;;;5.20;1.00;;;;;;5045153;28;20185;-78
2024/01/22 03:18:33;;;;;;;7.80;3.50;;;5.20;1.00;;;;;;5041447;28;20243;-77
2024/01/22 03:21:02;;;;;;;4.13;2.80;;;5.20;1.00;;;;;;5030189;28;20197;-76
2024/01/22 03:23:28;;;;;;;6.47;2.83;;;5.20;1.00;;;;;;5031570;28;20213;-79
2024/01/22 03:25:53;;;;;;;9.30;2.83;;;5.20;1.00;;;;;;5036108;28;20884;-77
2024/01/22 03:28:19;;;;;;;6.40;2.70;;;5.30;1.00;;;;;;5041696;28;20176;-79
2024/01/22 03:30:44;;;;;;;3.53;2.33;;;5.40;1.00;;;;;;5040359;28;20197;-77
2024/01/22 03:33:10;;;;;;;4.63;2.30;;;5.50;1.00;;;;;;5044284;28;20177;-81
2024/01/22 03:35:35;;;;;;;2.37;1.90;;;5.60;1.00;;;;;;5034137;28;20186;-76
2024/01/22 03:38:01;;;;;;;4.20;2.40;;;5.70;1.00;;;;;;5035995;28;20193;-77
2024/01/22 03:40:26;;;;;;;2.03;1.63;;;5.70;1.00;;;;;;5036886;28;20197;-79
2024/01/22 03:42:52;;;;;;;4.63;2.37;;;5.70;1.00;;;;;;5038311;28;20173;-78
2024/01/22 03:45:17;;;;;;;3.90;2.27;;;5.70;1.00;;;;;;5034454;28;20629;-77
2024/01/22 03:47:43;;;;;;;5.07;2.33;;;5.70;1.00;;;;;;5038359;28;20208;-78
2024/01/22 03:50:10;;;;;;;3.30;1.97;;;5.70;1.00;;;;;;5038428;28;20556;-77
2024/01/22 03:52:35;;;;;;;2.43;1.63;;;5.70;1.00;;;;;;5031485;28;20177;-79
2024/01/22 03:55:02;;;;;;;5.60;2.30;;;5.60;1.00;;;;;;5038484;28;20665;-77
2024/01/22 03:57:27;;;;;;;5.40;2.00;;;5.60;1.00;;;;;;5029789;28;20239;-78
2024/01/22 03:59:53;;;;;;;3.23;2.00;;;5.60;1.00;;;;;;5043192;28;20949;-76
2024/01/22 04:02:18;;;;;;;6.67;2.00;;;5.60;1.00;;;;;;5040968;28;20181;-77
2024/01/22 04:04:44;;;;;;;3.10;1.87;;;5.60;1.00;;;;;;5036232;28;20594;-77
2024/01/22 04:07:09;;;;;;;5.23;1.90;;;5.60;1.00;;;;;;5035988;28;20185;-82
2024/01/22 04:09:36;;;;;;;3.93;2.07;;;5.60;1.00;;;;;;5032816;28;20235;-76
2024/01/22 04:12:03;;;;;;;2.43;2.00;;;5.60;1.00;;;;;;5038002;28;20670;-81
2024/01/22 04:14:29;;;;;;;3.13;1.83;;;5.60;1.00;;;;;;5032613;28;20428;-78
2024/01/22 04:16:55;;;;;;;4.37;2.03;;;5.60;1.00;;;;;;5032619;28;20419;-76
2024/01/22 04:19:20;;;;;;;4.07;1.90;;;5.60;1.00;;;;;;5035382;28;20208;-85
2024/01/22 04:21:47;;;;;;;2.60;2.07;;;5.60;1.00;;;;;;5047616;28;20647;-79
2024/01/22 04:24:13;;;;;;;3.17;2.03;;;5.60;1.00;;;;;;5045157;28;20198;-80
2024/01/22 04:26:38;;;;;;;3.13;2.20;;;5.70;1.00;;;;;;5046443;28;20783;-82
2024/01/22 04:29:04;;;;;;;17.13;2.10;;;5.60;1.00;;;;;;5037942;28;20420;-77
2024/01/22 04:31:30;;;;;;;2.63;2.27;;;5.60;1.00;;;;;;5030181;28;20178;-76
2024/01/22 04:33:55;;;;;;;5.07;2.57;;;5.60;1.00;;;;;;5039659;28;20181;-77
2024/01/22 04:36:21;;;;;;;8.63;3.20;;;5.60;1.00;;;;;;5037405;28;20209;-77
2024/01/22 04:38:47;;;;;;;13.03;7.47;;;5.60;1.00;;;;;;5030177;28;20181;-76
2024/01/22 04:41:13;;;;;;;6.27;4.07;;;5.50;1.00;;;;;;5037508;28;20204;-77
2024/01/22 04:43:39;;;;;;;9.10;5.20;;;5.50;1.00;;;;;;5032855;28;20444;-75
2024/01/22 04:46:05;;;;;;;6.97;4.20;;;5.50;1.00;;;;;;5037165;28;20682;-77
2024/01/22 04:48:31;;;;;;;6.40;2.53;;;5.50;1.00;;;;;;5038831;28;20420;-76
2024/01/22 04:50:56;;;;;;;3.70;2.20;;;5.50;1.00;;;;;;5037836;28;20961;-78
2024/01/22 04:53:22;;;;;;;7.40;2.40;;;5.50;1.00;;;;;;5032098;28;20177;-76
2024/01/22 04:55:47;;;;;;;3.00;2.00;;;5.50;1.00;;;;;;5043215;28;20191;-77
2024/01/22 04:58:13;;;;;;;3.00;2.20;;;5.50;1.00;;;;;;5045596;28;20399;-79
2024/01/22 05:00:38;;;;;;;3.70;2.53;;;5.50;1.00;;;;;;5037693;28;20557;-84
2024/01/22 05:03:04;;;;;;;2.80;2.23;;;5.50;1.00;;;;;;5032909;28;20232;-80
2024/01/22 05:05:34;;;;;;;4.17;3.13;;;5.50;1.00;;;;;;5036712;28;20205;-81
2024/01/22 05:08:00;;;;;;;10.17;3.60;;;5.50;1.00;;;;;;5035956;28;20424;-76
2024/01/22 05:10:26;;;;;;;11.17;5.83;;;5.50;1.00;;;;;;5034936;28;20443;-76
2024/01/22 05:12:52;;;;;;;7.53;3.07;;;5.50;1.00;;;;;;5040588;28;20239;-76
2024/01/22 05:15:17;;;;;;;4.23;2.50;;;5.50;1.00;;;;;;5030283;28;20425;-77
2024/01/22 05:17:43;;;;;;;3.50;2.20;;;5.60;1.00;;;;;;5045238;28;20682;-79
2024/01/22 05:20:09;;;;;;;4.07;2.47;;;5.70;1.00;;;;;;5035515;28;20747;-79
2024/01/22 05:22:35;;;;;;;5.33;2.90;;;5.80;1.00;;;;;;5043764;28;20606;-78
2024/01/22 05:25:00;;;;;;;7.83;3.57;;;5.80;1.00;;;;;;5038867;28;20466;-80
2024/01/22 05:27:26;;;;;;;4.70;2.10;;;5.90;1.00;;;;;;5042076;28;20205;-76
2024/01/22 05:29:52;;;;;;;7.70;2.40;;;5.90;1.00;;;;;;5041502;28;20284;-76
2024/01/22 05:32:17;;;;;;;4.20;2.40;;;5.90;1.00;;;;;;5048101;28;20184;-82
2024/01/22 05:34:43;;;;;;;2.43;2.17;;;5.90;1.00;;;;;;5029152;28;20647;-74
2024/01/22 05:37:08;;;;;;;3.30;1.80;;;6.00;1.00;;;;;;5040251;28;20729;-78
2024/01/22 05:39:34;;;;;;;3.10;2.00;;;6.10;1.00;;;;;;5040200;28;20202;-76
2024/01/22 05:42:00;;;;;;;6.00;1.93;;;6.10;1.00;;;;;;5046920;28;20310;-82
2024/01/22 05:44:25;;;;;;;4.10;2.83;;;6.20;1.00;;;;;;5041631;28;20209;-78
2024/01/22 05:46:51;;;;;;;2.33;1.77;;;6.30;1.00;;;;;;5033253;28;20560;-77
2024/01/22 05:49:18;;;;;;;3.23;1.60;;;6.40;1.00;;;;;;5040314;28;20174;-76
2024/01/22 05:51:44;;;;;;;3.70;1.80;;;6.40;1.00;;;;;;5048746;28;20165;-77
2024/01/22 05:54:09;;;;;;;2.03;1.60;;;6.50;1.00;;;;;;5035294;28;20782;-80
2024/01/22 05:56:35;;;;;;;2.83;1.80;;;6.60;1.00;;;;;;5039631;28;20235;-77
2024/01/22 05:59:00;;;;;;;4.67;1.90;;;6.60;1.00;;;;;;5041487;28;20180;-81
2024/01/22 06:01:29;;;;;;;4.47;1.60;;;6.70;1.00;;;;;;5046292;28;20181;-77
2024/01/22 06:03:54;;;;;;;3.97;2.03;;;6.70;1.00;;;;;;5044632;28;20185;-78
2024/01/22 06:06:20;;;;;;;3.17;2.00;;;6.70;1.00;;;;;;5041309;28;20427;-78
2024/01/22 06:08:47;;;;;;;4.10;1.83;;;6.70;1.00;;;;;;5030347;28;20200;-74
2024/01/22 06:11:13;;;;;;;2.30;1.90;;;6.70;1.00;;;;;;5050510;28;20223;-76
2024/01/22 06:13:39;;;;;;;2.57;1.97;;;6.70;1.00;;;;;;5040741;28;20404;-80
2024/01/22 06:16:12;;;;;;;2.07;1.80;;;6.70;1.00;;;;;;5043151;28;20819;-78
2024/01/22 06:18:39;;;;;;;8.50;2.50;;;6.70;1.00;;;;;;5051573;28;20561;-77
2024/01/22 06:21:06;;;;;;;5.77;2.90;;;6.70;1.00;;;;;;5032547;28;20437;-77
2024/01/22 06:23:32;;;;;;;7.20;3.90;;;6.70;1.00;;;;;;5037909;28;20419;-81
2024/01/22 06:25:58;;;;;;;6.13;3.33;;;6.70;1.00;;;;;;5040054;28;20863;-76
2024/01/22 06:28:25;;;;;;;4.93;2.60;;;6.80;1.00;;;;;;5046994;28;20169;-76
2024/01/22 06:30:51;;;;;;;5.63;3.43;;;6.80;1.00;;;;;;5039684;28;20439;-77
2024/01/22 06:33:18;;;;;;;3.50;2.10;;;6.80;1.00;;;;;;5047893;28;20435;-79
2024/01/22 06:35:43;;;;;;;2.63;2.10;;;6.70;1.00;;;;;;5043021;28;20447;-77
2024/01/22 06:38:09;;;;;;;2.77;1.70;;;6.70;1.00;;;;;;5034949;28;20424;-76
2024/01/22 06:40:35;;;;;;;3.60;2.30;;;6.70;1.00;;;;;;5046826;28;20236;-80
2024/01/22 06:43:00;;;;;;;1.97;1.50;;;6.70;1.00;;;;;;5052384;28;20520;-76
2024/01/22 06:45:26;;;;;;;2.97;1.67;;;6.70;1.00;;;;;;5048239;28;20212;-77
2024/01/22 06:47:54;;;;;;;2.77;2.10;;;6.70;1.00;;;;;;5040986;28;20188;-77
2024/01/22 06:50:20;;;;;;;1.93;1.53;;;6.70;1.00;;;;;;5048224;28;20185;-77
2024/01/22 06:52:46;;;;;;;2.87;1.80;;;6.70;1.00;;;;;;5036701;28;20858;-77
2024/01/22 06:55:12;;;;;;;4.90;1.73;;;6.80;1.00;;;;;;5043143;28;20173;-78
2024/01/22 06:57:37;;;;;;;2.20;1.73;;;6.80;1.00;;;;;;5052683;28;20631;-78
2024/01/22 07:00:07;;;;;;;2.47;1.73;;;6.80;1.00;;;;;;5037336;28;20483;-82
2024/01/22 07:02:33;;;;;;;2.70;1.80;;;6.80;1.00;;;;;;5041134;28;20560;-78
2024/01/22 07:04:59;;;;;;;3.57;1.77;;;6.90;1.00;;;;;;5043507;28;20460;-78
2024/01/22 07:07:25;;;;;;;2.83;1.90;;;6.80;1.00;;;;;;5041713;28;20493;-77
2024/01/22 07:09:51;;;;;;;3.50;1.73;;;6.90;1.00;;;;;;5048825;28;20181;-76
2024/01/22 07:12:18;;;;;;;2.80;1.80;;;7.00;1.00;;;;;;5045592;28;20415;-80
2024/01/22 07:14:44;;;;;;;4.07;1.70;;;6.80;1.00;;;;;;5043983;28;20539;-77
2024/01/22 07:17:09;;;;;;;2.87;1.80;;;6.80;1.00;;;;;;5035733;28;20567;-80
2024/01/22 07:19:36;;;;;;;3.73;1.87;;;6.80;1.00;;;;;;5034773;28;20695;-77
2024/01/22 07:22:01;;;;;;;2.83;1.50;;;6.80;1.00;;;;;;5047102;28;20243;-75
2024/01/22 07:24:26;;;;;;;3.20;2.07;;;6.80;1.00;;;;;;5044578;28;20902;-77
2024/01/22 07:26:52;;;;;;;1.80;1.50;;;6.90;1.00;;;;;;5052294;28;20258;-83
2024/01/22 07:29:18;;;;;;;3.93;1.50;;;;;;;;;;5046554;28;20413;-84
2024/01/22 07:31:44;;;;;;;1.50;1.40;;;;;;;;;;5061428;28;20181;-82
2024/01/22 07:34:10;;;;;;;4.93;2.57;;;7.40;1.00;;;;;;5068303;28;20434;-83
2024/01/22 07:36:36;;;;;;;3.93;1.60;;;;;;;;;;5061219;28;20425;-79
2024/01/22 07:39:02;;;;;;;2.87;1.60;;;7.90;1.00;;;;;;5056563;28;20479;-79
2024/01/22 07:41:28;;;;;;;3.03;1.60;;;8.00;1.00;;;;;;5060212;28;20194;-82
2024/01/22 07:43:53;;;;;;;1.83;1.33;;;7.90;1.00;;;;;;5062843;28;20456;-84
2024/01/22 07:46:19;;;;;;;3.13;1.60;;;;;;;;;;5061946;28;20189;-84
2024/01/22 07:48:45;;;;;;;2.93;1.70;;;8.00;1.00;;;;;;5052464;28;20206;-85
2024/01/22 07:51:10;;;;;;;2.50;1.80;;;7.90;1.00;;;;;;5060544;28;20798;-78
2024/01/22 07:53:36;;;;;;;2.77;2.03;;;7.90;1.00;;;;;;5050887;28;20189;-82
2024/01/22 07:56:02;;;;;;;3.37;2.07;;;8.00;1.00;;;;;;5039793;28;20200;-77
2024/01/22 07:58:28;;;;;;;3.60;1.97;;;8.10;1.00;;;;;;5053474;28;20193;-75
2024/01/22 08:00:53;;;;;;;3.10;2.27;;;8.20;1.00;;;;;;5044532;28;20462;-75
2024/01/22 08:03:19;;;;;;;1.60;1.47;;;;;;;;;;5052201;28;20181;-80
2024/01/22 08:05:45;;;;;;;3.43;1.63;;;8.20;1.00;;;;;;5048859;28;20197;-82
2024/01/22 08:08:12;;;;;;;6.30;2.10;;;8.30;1.00;;;;;;5048261;28;20538;-76
2024/01/22 08:10:38;;;;;;;5.60;1.70;;;;;;;;;;5058997;28;20501;-77
2024/01/22 08:13:03;;;;;;;3.93;2.00;;;8.20;1.00;;;;;;5065700;28;20203;-82
2024/01/22 08:15:29;;;;;;;3.53;2.07;;;;;;;;;;5059234;28;20180;-80
2024/01/22 08:17:55;;;;;;;5.60;2.90;;;8.10;1.00;;;;;;5053837;28;20177;-80
2024/01/22 08:20:21;;;;;;;4.00;2.63;;;8.10;1.00;;;;;;5055358;28;20435;-80
2024/01/22 08:22:47;;;;;;;3.60;2.20;;;8.10;1.00;;;;;;5052193;28;20438;-79
2024/01/22 08:25:18;;;;;;;4.80;1.80;;;8.20;1.00;;;;;;5054455;28;20272;-77
2024/01/22 08:27:45;;;;;;;2.90;1.57;;;8.40;1.00;;;;;;5050890;28;20196;-83
2024/01/22 08:30:17;;;;;;;2.27;1.70;;;8.60;1.00;;;;;;5046224;28;20480;-79
2024/01/22 08:32:43;;;;;;;2.13;1.60;;;;;;;;;;5045604;28;20440;-77
2024/01/22 08:35:09;;;;;;;1.93;1.50;;;8.70;1.00;;;;;;5045898;28;20411;-77
2024/01/22 08:37:37;;;;;;;3.10;2.13;;;8.70;1.00;;;;;;5046635;28;20185;-77
2024/01/22 08:40:05;;;;;;;3.13;2.73;;;8.70;1.00;;;;;;5052811;28;20200;-75
2024/01/22 08:42:31;;;;;;;5.97;2.60;;;;;;;;;;5050514;28;20973;-78
2024/01/22 08:44:57;;;;;;;2.80;1.90;;;8.70;1.00;;;;;;5057424;28;20508;-80
2024/01/22 08:47:22;;;;;;;2.77;1.97;;;8.70;1.00;;;;;;5045797;28;20177;-77
2024/01/22 08:49:48;;;;;;;2.80;1.73;;;8.50;1.00;;;;;;5046702;28;20767;-78
2024/01/22 08:52:13;;;;;;;2.60;1.67;;;8.60;1.00;;;;;;5046987;28;20275;-75
2024/01/22 08:54:39;;;;;;;2.30;1.77;;;8.60;1.00;;;;;;5042387;28;20196;-76
2024/01/22 08:57:05;;;;;;;2.10;1.50;;;;;;;;;;5048268;28;20177;-83
2024/01/22 08:59:30;;;;;;;1.83;1.63;;;8.40;1.00;;;;;;5054496;28;20224;-80
2024/01/22 09:01:56;;;;;;;7.43;2.00;;;8.30;1.00;;;;;;5045344;28;20184;-75
2024/01/22 09:04:21;;;;;;;2.90;2.40;;;8.30;1.00;;;;;;5036345;28;20623;-77
2024/01/22 09:06:47;;;;;;;2.80;2.13;;;8.20;1.00;;;;;;5037170;28;20193;-79
2024/01/22 09:09:13;;;;;;;6.83;1.97;;;8.10;1.00;;;;;;5038459;28;20275;-77
2024/01/22 09:11:38;;;;;;;2.63;1.73;;;8.10;1.00;;;;;;5038284;28;20599;-74
2024/01/22 09:14:04;;;;;;;3.40;1.73;;;8.20;1.00;;;;;;5039421;28;20485;-76
2024/01/22 09:16:29;;;;;;;2.07;1.70;;;8.20;1.00;;;;;;5050752;28;20185;-77
2024/01/22 09:18:57;;;;;;;2.83;1.77;;;8.20;1.00;;;;;;5042388;28;20177;-76
2024/01/22 09:21:22;;;;;;;3.40;1.67;;;8.20;1.00;;;;;;5034828;28;20211;-80
2024/01/22 09:23:48;;;;;;;3.10;2.00;;;8.20;1.00;;;;;;5046022;28;20499;-76
2024/01/22 09:26:14;;;;;;;3.63;1.90;;;8.20;1.00;;;;;;5038982;28;21690;-80
2024/01/22 09:28:39;;;;;;;5.20;1.87;;;8.20;1.00;;;;;;5050371;28;20251;-77
2024/01/22 09:31:05;;;;;;;4.17;1.90;;;8.20;1.00;;;;;;5037734;28;20205;-76
2024/01/22 09:33:30;;;;;;;2.53;2.00;;;8.30;1.00;;;;;;5047251;28;20592;-77
2024/01/22 09:35:56;;;;;;;7.53;2.43;;;8.30;1.00;;;;;;5046223;28;20224;-79
2024/01/22 09:38:22;;;;;;;2.47;1.63;;;8.40;1.00;;;;;;5045388;28;20181;-79
2024/01/22 09:40:52;;;;;;;2.77;1.90;;;8.40;1.00;;;;;;5037886;28;20670;-75
2024/01/22 09:43:18;;;;;;;2.40;1.80;;;8.40;1.00;;;;;;5041216;28;20195;-80
2024/01/22 09:45:47;;;;;;;2.20;1.90;;;8.40;1.00;;;;;;5044498;28;20471;-75
2024/01/22 09:48:13;;;;;;;2.00;1.47;;;8.40;1.00;;;;;;5038472;28;20427;-78
2024/01/22 09:50:39;;;;;;;1.90;1.70;;;8.50;1.00;;;;;;5039733;28;20953;-76
2024/01/22 09:53:12;;;;;;;1.97;1.63;;;8.50;1.00;;;;;;5044502;28;20495;-78
2024/01/22 09:55:40;;;;;;;2.37;1.60;;;8.60;1.00;;;;;;5039053;28;20419;-75
2024/01/22 09:58:13;;;;;;;5.43;2.50;;;8.60;1.00;;;;;;5040226;28;20421;-78
2024/01/22 10:00:39;;;;;;;2.77;1.70;;;8.70;1.00;;;;;;5040965;28;20789;-75
2024/01/22 10:03:05;;;;;;;10.60;1.63;;;8.80;1.00;;;;;;5047753;28;21872;-74
2024/01/22 10:05:31;;;;;;;2.50;1.70;;;8.80;1.00;;;;;;5042694;28;20468;-76
2024/01/22 10:07:57;;;;;;;3.73;1.60;;;8.80;1.00;;;;;;5045017;28;20466;-76
2024/01/22 10:10:23;;;;;;;2.33;1.70;;;8.80;1.00;;;;;;5043119;28;20189;-76
2024/01/22 10:13:05;;;;;;;5.83;2.07;;;8.90;1.00;;;;;;5039545;28;20180;-77
2024/01/22 10:15:37;;;;;;;2.20;1.57;;;8.80;1.00;;;;;;5041328;28;20217;-76
2024/01/22 10:18:11;;;;;;;7.60;1.80;;;8.80;1.00;;;;;;5045827;28;20485;-76
2024/01/22 10:20:37;;;;;;;7.07;2.40;;;11.10;1.00;;;;;;5034317;28;20444;-77
2024/01/22 10:23:03;;;;;;;3.63;1.77;;;8.90;1.00;;;;;;5031405;28;20448;-76
2024/01/22 10:25:30;;;;;;;2.80;1.63;;;8.90;1.00;;;;;;5041421;28;20507;-76
2024/01/22 10:28:16;;;;;;;1.90;1.50;;;9.00;1.00;;;;;;5044090;28;20604;-74
2024/01/22 10:30:44;;;;;;;8.30;1.73;;;9.00;1.00;;;;;;5039115;28;20424;-78
2024/01/22 10:33:17;;;;;;;2.80;1.80;;;8.90;1.00;;;;;;5040665;28;20427;-76
2024/01/22 10:35:45;;;;;;;6.93;2.27;;;8.90;1.00;;;;;;5042797;28;20453;-75
2024/01/22 10:38:12;;;;;;;4.50;1.60;;;8.80;1.00;;;;;;5043563;28;20435;-82
2024/01/22 10:40:38;;;;;;;2.40;1.60;;;8.60;1.00;;;;;;5039970;28;20558;-75
2024/01/22 10:43:20;;;;;;;3.43;1.70;;;8.60;1.00;;;;;;5038443;28;20412;-75
2024/01/22 10:45:49;;;;;;;2.10;1.50;;;8.50;1.00;;;;;;5041791;28;20547;-75
2024/01/22 10:48:20;;;;;;;2.23;1.63;;;8.40;1.00;;;;;;5035521;28;20424;-81
2024/01/22 10:50:45;;;;;;;3.70;1.40;;;8.50;1.00;;;;;;5042449;28;20539;-81
2024/01/22 10:53:11;;;;;;;2.00;1.50;;;8.50;1.00;;;;;;5041212;28;20427;-76
2024/01/22 10:55:38;;;;;;;3.13;1.70;;;8.50;1.00;;;;;;5035098;28;20181;-76
2024/01/22 10:58:13;;;;;;;5.47;1.30;;;8.60;1.00;;;;;;5047090;28;20551;-76
2024/01/22 11:00:43;;;;;;;2.80;1.47;;;8.60;1.00;;;;;;5040502;28;20443;-75
2024/01/22 11:03:12;;;;;;;2.30;1.40;;;8.60;1.00;;;;;;5037386;28;20478;-75
2024/01/22 11:05:41;;;;;;;2.60;1.53;;;8.60;1.00;;;;;;5038937;28;20498;-74
2024/01/22 11:08:11;;;;;;;2.60;1.50;;;8.60;1.00;;;;;;5043653;28;20902;-79
2024/01/22 11:10:39;;;;;;;4.17;1.50;;;8.60;1.00;;;;;;5041166;28;20424;-78
2024/01/22 11:13:06;;;;;;;2.93;1.60;;;8.60;1.00;;;;;;5035635;28;20440;-76
2024/01/22 11:15:32;;;;;;;2.33;1.87;;;8.70;1.00;;;;;;5041192;28;20423;-76
2024/01/22 11:17:58;;;;;;;2.80;1.50;;;8.70;1.00;;;;;;5042335;28;20420;-75
2024/01/22 11:20:24;;;;;;;2.70;1.57;;;8.70;1.00;;;;;;5035072;28;20201;-75
2024/01/22 11:23:04;;;;;;;2.33;1.40;;;8.70;1.00;;;;;;5042632;28;20659;-76
2024/01/22 11:25:32;;;;;;;3.47;1.57;;;8.80;1.00;;;;;;5031205;28;20830;-76
2024/01/22 11:28:09;;;;;;;2.03;1.57;;;8.90;1.00;;;;;;5037388;28;20413;-78
2024/01/22 11:30:39;;;;;;;4.20;1.40;;;8.90;1.00;;;;;;5034330;28;20526;-77
2024/01/22 11:33:28;;;;;;;4.53;1.70;;;8.90;1.00;;;;;;5045601;28;20419;-76
2024/01/22 11:35:54;;;;;;;1.50;1.30;;;9.00;1.00;;;;;;5030912;28;20795;-76
2024/01/22 11:38:49;;;;;;;3.80;1.90;;;9.00;1.00;;;;;;5033476;28;20466;-79
2024/01/22 11:41:28;;;;;;;4.70;2.17;;;9.10;1.00;;;;;;5041066;28;20223;-79
2024/01/22 11:43:54;;;;;;;2.70;1.67;;;9.10;1.00;;;;;;5038473;28;20511;-77
2024/01/22 11:46:19;;;;;;;2.33;1.70;;;9.20;1.00;;;;;;5035445;28;20515;-75
2024/01/22 11:48:45;;;;;;;2.43;1.50;;;9.30;1.00;;;;;;5039253;28;20177;-76
2024/01/22 11:51:10;;;;;;;4.93;1.60;;;8.90;1.00;;;;;;5049565;28;20691;-78
2024/01/22 11:53:53;;;;;;;4.20;1.77;;;9.30;1.00;;;;;;5041551;28;20213;-81
2024/01/22 11:56:22;;;;;;;3.10;1.53;;;9.30;1.00;;;;;;5040339;28;20181;-76
2024/01/22 11:58:51;;;;;;;3.93;1.70;;;9.40;1.00;;;;;;5046501;28;20419;-75
2024/01/22 12:01:19;;;;;;;1.80;1.40;;;9.50;1.00;;;;;;5040429;28;20455;-74
2024/01/22 12:03:45;;;;;;;3.33;1.70;;;9.50;1.00;;;;;;5038383;28;20442;-75
2024/01/22 12:06:11;;;;;;;6.83;2.30;;;9.60;1.00;;;;;;5039864;28;20981;-77
2024/01/22 12:08:37;;;;;;;3.13;1.60;;;9.50;1.00;;;;;;5036550;28;20603;-77
2024/01/22 12:11:06;;;;;;;3.67;1.50;;;9.60;1.00;;;;;;5039095;28;20250;-78
2024/01/22 12:13:32;;;;;;;2.67;1.63;;;9.60;1.00;;;;;;5039564;28;20832;-77
2024/01/22 12:15:58;;;;;;;2.13;1.60;;;9.70;1.00;;;;;;5038145;28;20421;-76
2024/01/22 12:18:25;;;;;;;4.23;1.60;;;9.70;1.00;;;;;;5040754;28;20910;-77
2024/01/22 12:20:50;;;;;;;1.90;1.50;;;9.70;1.00;;;;;;5046069;28;20207;-76
2024/01/22 12:23:28;;;;;;;2.80;1.50;;;9.70;1.00;;;;;;5045677;28;20416;-75
2024/01/22 12:25:55;;;;;;;1.43;1.33;;;9.70;1.00;;;;;;5036593;28;20193;-79
2024/01/22 12:28:21;;;;;;;2.43;1.60;;;9.70;1.00;;;;;;5043836;28;20424;-76
2024/01/22 12:30:56;;;;;;;2.43;1.50;;;9.80;1.00;;;;;;5035219;28;20441;-74
2024/01/22 12:33:24;;;;;;;2.47;1.60;;;9.90;1.00;;;;;;5041430;28;20180;-84
2024/01/22 12:35:51;;;;;;;2.13;1.40;;;9.90;1.00;;;;;;5041662;28;20497;-80
2024/01/22 12:38:20;;;;;;;1.57;1.40;;;9.90;1.00;;;;;;5035516;28;20412;-79
2024/01/22 12:40:46;;;;;;;2.00;1.30;;;10.10;1.00;;;;;;5042226;28;20486;-76
2024/01/22 12:43:11;;;;;;;1.83;1.30;;;10.20;1.00;;;;;;5041628;28;20986;-76
2024/01/22 12:45:37;;;;;;;2.33;1.47;;;10.40;1.00;;;;;;5051236;28;20220;-78
2024/01/22 12:48:03;;;;;;;1.50;1.40;;;10.40;1.00;;;;;;5041696;28;20662;-77
2024/01/22 12:50:32;;;;;;;2.33;1.57;;;10.40;1.00;;;;;;5040017;28;20445;-81
2024/01/22 12:52:58;;;;;;;1.90;1.40;;;10.40;1.00;;;;;;5034899;28;20178;-79
2024/01/22 12:55:24;;;;;;;2.37;1.40;;;;;;;;;;5040894;28;20419;-83
2024/01/22 12:57:49;;;;;;;3.17;1.60;;;9.20;1.00;;;;;;5046581;28;20176;-77
2024/01/22 13:00:16;;;;;;;2.60;1.30;;;10.60;1.00;;;;;;5048336;28;20497;-79
2024/01/22 13:02:43;;;;;;;1.77;1.30;;;10.60;1.00;;;;;;5045322;28;20224;-77
2024/01/22 13:05:09;;;;;;;4.13;1.40;;;10.70;1.00;;;;;;5044570;28;20548;-74
2024/01/22 13:07:35;;;;;;;2.93;1.30;;;10.80;1.00;;;;;;5041251;28;20458;-78